Time;durP1;ratioP1;P1;durP2;ratioP2;P2;SDS_P1;SDS_P2;PMS_P1;PMS_P2;Temp;Humidity;BMP_temperature;BMP_pressure;BME280_temperature;BME280_humidity;BME280_pressure;Samples;Min_cycle;Max_cycle;Signal;HPM_P1;HPM_P2
2022/04/20 00:00:52;;;;;;;5.53;3.20;;;8.40;99.90;;;;;;5116533;28;20040;-80
2022/04/20 00:03:17;;;;;;;6.13;3.20;;;8.40;99.90;;;;;;5116762;28;20075;-80
2022/04/20 00:05:43;;;;;;;5.43;3.30;;;8.40;99.90;;;;;;5116672;28;20108;-80
2022/04/20 00:08:08;;;;;;;7.07;3.58;;;8.30;99.90;;;;;;5116661;28;20039;-80
2022/04/20 00:10:34;;;;;;;5.70;3.50;;;8.30;99.90;;;;;;5116608;28;20048;-81
2022/04/20 00:12:59;;;;;;;5.43;3.13;;;8.30;99.90;;;;;;5117104;28;20552;-80
2022/04/20 00:15:25;;;;;;;7.35;3.17;;;8.30;99.90;;;;;;5116542;28;20475;-81
2022/04/20 00:17:51;;;;;;;6.28;3.30;;;8.20;99.90;;;;;;5116501;28;20131;-80
2022/04/20 00:20:17;;;;;;;6.85;3.47;;;8.20;99.90;;;;;;5116515;28;20458;-78
2022/04/20 00:22:43;;;;;;;6.85;3.58;;;8.20;99.90;;;;;;5116603;28;20039;-79
2022/04/20 00:25:08;;;;;;;9.35;3.55;;;8.10;99.90;;;;;;5116267;28;20042;-79
2022/04/20 00:27:35;;;;;;;5.55;3.05;;;8.10;99.90;;;;;;5098327;28;20051;-78
2022/04/20 00:30:06;;;;;;;5.40;3.47;;;8.00;99.90;;;;;;5116285;28;20050;-79
2022/04/20 00:32:32;;;;;;;6.72;3.80;;;8.00;99.90;;;;;;5132275;27;20076;-78
2022/04/20 00:34:57;;;;;;;6.10;3.40;;;8.00;99.90;;;;;;5116208;28;20035;-77
2022/04/20 00:37:23;;;;;;;7.47;3.60;;;7.90;99.90;;;;;;5116094;28;20043;-80
2022/04/20 00:39:49;;;;;;;8.88;3.63;;;7.90;99.90;;;;;;5115113;28;20164;-78
2022/04/20 00:42:15;;;;;;;8.65;4.05;;;7.90;99.90;;;;;;5116077;27;20043;-79
2022/04/20 00:44:41;;;;;;;6.72;3.85;;;7.80;99.90;;;;;;5115605;28;20131;-78
2022/04/20 00:47:09;;;;;;;7.82;3.63;;;7.80;99.90;;;;;;5115871;28;20050;-78
2022/04/20 00:49:38;;;;;;;9.70;4.57;;;7.80;99.90;;;;;;5115934;27;20126;-78
2022/04/20 00:52:06;;;;;;;10.18;4.72;;;7.80;99.90;;;;;;5115779;28;20086;-78
2022/04/20 00:54:32;;;;;;;5.68;3.97;;;7.80;99.90;;;;;;5115686;28;20083;-79
2022/04/20 00:56:58;;;;;;;8.68;4.00;;;7.80;99.90;;;;;;5115617;28;20122;-80
2022/04/20 00:59:26;;;;;;;6.80;3.60;;;7.70;99.90;;;;;;5115507;28;20130;-79
2022/04/20 01:01:52;;;;;;;8.60;3.70;;;7.70;99.90;;;;;;5115870;28;20050;-78
2022/04/20 01:04:18;;;;;;;6.35;3.65;;;7.70;99.90;;;;;;5115545;28;20123;-79
2022/04/20 01:06:45;;;;;;;6.32;3.50;;;7.60;99.90;;;;;;5115577;28;20044;-78
2022/04/20 01:09:11;;;;;;;6.50;3.53;;;7.60;99.90;;;;;;5115244;28;20130;-80
2022/04/20 01:11:37;;;;;;;6.15;3.60;;;7.70;99.90;;;;;;5114952;28;20148;-79
2022/04/20 01:14:03;;;;;;;8.43;4.20;;;7.60;99.90;;;;;;5115740;28;20477;-81
2022/04/20 01:16:29;;;;;;;5.95;3.53;;;7.60;99.90;;;;;;5115159;28;20494;-80
2022/04/20 01:18:55;;;;;;;6.05;3.47;;;7.50;99.90;;;;;;5115288;28;20043;-81
2022/04/20 01:21:22;;;;;;;8.20;4.10;;;7.50;99.90;;;;;;5115142;28;20436;-80
2022/04/20 01:23:47;;;;;;;4.68;3.33;;;7.50;99.90;;;;;;5115077;28;20092;-79
2022/04/20 01:26:13;;;;;;;7.78;3.70;;;7.50;99.90;;;;;;5115189;28;20043;-81
2022/04/20 01:28:43;;;;;;;7.07;3.80;;;7.50;99.90;;;;;;5115106;28;20042;-81
2022/04/20 01:31:12;;;;;;;8.48;3.78;;;7.50;99.90;;;;;;5115021;28;20043;-80
2022/04/20 01:33:37;;;;;;;7.22;4.47;;;7.40;99.90;;;;;;5115078;28;20051;-80
2022/04/20 01:36:03;;;;;;;8.68;4.10;;;7.40;99.90;;;;;;5113792;28;20047;-80
2022/04/20 01:38:29;;;;;;;7.30;4.38;;;7.30;99.90;;;;;;5114789;28;20039;-79
2022/04/20 01:40:54;;;;;;;7.90;4.30;;;7.30;99.90;;;;;;5114800;28;20044;-79
2022/04/20 01:43:20;;;;;;;6.47;3.63;;;7.30;99.90;;;;;;5097128;28;20058;-77
2022/04/20 01:45:45;;;;;;;7.55;3.47;;;7.30;99.90;;;;;;5114775;28;20044;-79
2022/04/20 01:48:11;;;;;;;9.20;4.00;;;7.20;99.90;;;;;;5115033;28;20039;-79
2022/04/20 01:51:46;;;;;;;6.60;3.83;;;7.20;99.90;;;;;;5114496;28;20146;-79
2022/04/20 01:53:22;;;;;;;7.07;3.58;;;7.20;99.90;;;;;;5114254;28;20055;-80
2022/04/20 01:55:47;;;;;;;6.55;3.95;;;7.10;99.90;;;;;;5114538;28;20132;-79
2022/04/20 01:58:13;;;;;;;7.20;4.28;;;7.10;99.90;;;;;;5114501;28;20571;-79
2022/04/20 02:00:38;;;;;;;8.13;4.10;;;7.10;99.90;;;;;;5114498;28;20503;-79
2022/04/20 02:03:04;;;;;;;7.63;4.13;;;7.10;99.90;;;;;;5114526;28;20498;-79
2022/04/20 02:05:30;;;;;;;8.63;4.15;;;7.10;99.90;;;;;;5114603;28;20093;-81
2022/04/20 02:07:57;;;;;;;5.95;3.75;;;7.00;99.90;;;;;;5114197;28;20043;-80
2022/04/20 02:10:22;;;;;;;5.57;4.10;;;7.00;99.90;;;;;;5114029;28;20087;-80
2022/04/20 02:12:48;;;;;;;5.85;4.03;;;7.00;99.90;;;;;;5114085;28;20062;-79
2022/04/20 02:15:13;;;;;;;6.88;3.85;;;6.90;99.90;;;;;;5114567;28;20073;-79
2022/04/20 02:17:39;;;;;;;10.23;3.78;;;6.90;99.90;;;;;;5114433;28;20133;-79
2022/04/20 02:20:05;;;;;;;8.13;4.43;;;6.80;99.90;;;;;;5114270;28;20487;-79
2022/04/20 02:22:31;;;;;;;6.47;4.18;;;6.80;99.90;;;;;;5114353;28;20054;-79
2022/04/20 02:24:59;;;;;;;6.88;4.07;;;6.70;99.90;;;;;;5114686;28;20044;-79
2022/04/20 02:27:26;;;;;;;11.85;4.03;;;6.70;99.90;;;;;;5114582;28;20083;-79
2022/04/20 02:29:52;;;;;;;8.57;4.20;;;6.70;99.90;;;;;;5114251;28;20043;-79
2022/04/20 02:32:17;;;;;;;7.97;4.05;;;6.60;99.90;;;;;;5114233;28;20486;-79
2022/04/20 02:34:43;;;;;;;6.75;3.85;;;6.60;99.90;;;;;;5114163;28;20056;-79
2022/04/20 02:37:09;;;;;;;6.20;3.58;;;6.60;99.90;;;;;;5113975;28;20394;-79
2022/04/20 02:39:35;;;;;;;6.82;3.45;;;6.50;99.90;;;;;;5114156;28;20044;-78
2022/04/20 02:42:01;;;;;;;8.23;4.10;;;6.50;99.90;;;;;;5114116;28;20435;-80
2022/04/20 02:44:27;;;;;;;6.40;4.30;;;6.50;99.90;;;;;;5114139;28;20043;-80
2022/04/20 02:46:52;;;;;;;11.85;4.68;;;6.40;99.90;;;;;;5114098;28;20495;-79
2022/04/20 02:49:18;;;;;;;7.07;4.00;;;6.40;99.90;;;;;;5114048;28;20131;-80
2022/04/20 02:51:43;;;;;;;9.57;4.47;;;6.40;99.90;;;;;;5114024;28;20384;-80
2022/04/20 02:54:09;;;;;;;9.27;4.30;;;6.40;99.90;;;;;;5114673;28;20047;-80
2022/04/20 02:56:34;;;;;;;7.50;4.40;;;6.30;99.90;;;;;;5118810;28;20050;-79
2022/04/20 02:59:00;;;;;;;8.60;4.82;;;6.30;99.90;;;;;;5121410;28;20039;-78
2022/04/20 03:01:28;;;;;;;9.05;4.60;;;6.30;99.90;;;;;;5123203;28;20132;-79
2022/04/20 03:03:53;;;;;;;8.57;4.53;;;6.40;99.90;;;;;;5122248;28;20077;-79
2022/04/20 03:06:19;;;;;;;10.98;4.65;;;6.30;99.90;;;;;;5123421;28;20048;-78
2022/04/20 03:08:46;;;;;;;8.98;4.75;;;6.30;99.90;;;;;;5123437;28;20050;-78
2022/04/20 03:11:11;;;;;;;;;;;6.30;99.90;;;;;;5124510;28;20079;-79
2022/04/20 03:13:37;;;;;;;10.10;4.55;;;6.30;99.90;;;;;;5124155;28;19920;-76
2022/04/20 03:16:02;;;;;;;10.30;5.00;;;6.20;99.90;;;;;;5123006;28;20083;-74
2022/04/20 03:18:32;;;;;;;9.45;4.30;;;6.30;99.90;;;;;;5121681;28;20075;-76
2022/04/20 03:21:01;;;;;;;7.97;4.53;;;6.30;99.90;;;;;;5114753;28;20096;-78
2022/04/20 03:23:28;;;;;;;9.15;5.28;;;6.20;99.90;;;;;;5117841;28;20043;-77
2022/04/20 03:25:54;;;;;;;9.48;4.28;;;6.20;99.90;;;;;;5117784;28;20044;-78
2022/04/20 03:28:20;;;;;;;7.28;4.22;;;6.20;99.90;;;;;;5117599;28;20527;-78
2022/04/20 03:30:46;;;;;;;8.52;4.47;;;6.20;99.90;;;;;;5117542;28;20085;-79
2022/04/20 03:33:11;;;;;;;9.45;4.53;;;6.20;99.90;;;;;;5117566;28;20047;-79
2022/04/20 03:35:38;;;;;;;8.93;4.53;;;6.20;99.90;;;;;;5117607;28;20040;-78
2022/04/20 03:38:08;;;;;;;8.32;4.55;;;6.10;99.90;;;;;;5116460;28;20048;-79
2022/04/20 03:40:34;;;;;;;7.07;4.30;;;6.10;99.90;;;;;;5117419;28;20055;-78
2022/04/20 03:43:00;;;;;;;12.23;4.90;;;6.20;99.90;;;;;;5117389;28;20068;-79
2022/04/20 03:45:26;;;;;;;9.95;4.43;;;6.20;99.90;;;;;;5117176;27;20110;-79
2022/04/20 03:47:51;;;;;;;11.88;4.63;;;6.10;99.90;;;;;;5117143;28;20036;-78
2022/04/20 03:50:17;;;;;;;9.35;4.75;;;6.10;99.90;;;;;;5116996;28;20053;-78
2022/04/20 03:52:43;;;;;;;8.32;4.53;;;6.10;99.90;;;;;;5117788;28;20400;-77
2022/04/20 03:55:09;;;;;;;6.93;3.97;;;6.00;99.90;;;;;;5117333;28;20039;-79
2022/04/20 03:57:34;;;;;;;8.23;4.38;;;6.00;99.90;;;;;;5116832;28;20048;-78
2022/04/20 04:00:00;;;;;;;7.45;4.38;;;5.90;99.90;;;;;;5115936;28;20073;-78
2022/04/20 04:02:26;;;;;;;9.00;4.97;;;5.90;99.90;;;;;;5117080;28;20475;-80
2022/04/20 04:04:51;;;;;;;6.85;4.60;;;5.90;99.90;;;;;;5116634;28;20051;-80
2022/04/20 04:07:17;;;;;;;7.45;4.25;;;5.80;99.90;;;;;;5116783;28;20120;-78
2022/04/20 04:09:42;;;;;;;11.63;4.78;;;5.80;99.90;;;;;;5116693;28;20086;-79
2022/04/20 04:12:09;;;;;;;9.52;4.75;;;5.80;99.90;;;;;;5115596;28;20490;-80
2022/04/20 04:14:39;;;;;;;9.68;4.57;;;5.80;99.90;;;;;;5116678;28;20054;-79
2022/04/20 04:17:05;;;;;;;7.07;4.18;;;5.70;99.90;;;;;;5116534;28;20061;-79
2022/04/20 04:19:31;;;;;;;8.30;4.50;;;5.70;99.90;;;;;;5116658;27;20364;-79
2022/04/20 04:21:57;;;;;;;8.30;4.43;;;5.70;99.90;;;;;;5116378;28;20051;-80
2022/04/20 04:24:34;;;;;;;7.70;4.07;;;5.70;99.90;;;;;;5116436;28;20403;-79
2022/04/20 04:27:00;;;;;;;8.25;4.50;;;5.60;99.90;;;;;;5116561;28;20043;-80
2022/04/20 04:29:26;;;;;;;7.77;4.23;;;5.60;99.90;;;;;;5116378;28;20051;-79
2022/04/20 04:31:52;;;;;;;12.38;5.43;;;5.40;99.90;;;;;;5116297;27;20282;-80
2022/04/20 04:34:18;;;;;;;8.95;4.45;;;5.60;99.90;;;;;;5115772;28;21078;-79
2022/04/20 04:36:44;;;;;;;7.87;4.40;;;5.50;99.90;;;;;;5116083;27;20054;-79
2022/04/20 04:39:09;;;;;;;7.25;4.35;;;5.50;99.90;;;;;;5116336;28;20387;-79
2022/04/20 04:41:35;;;;;;;9.25;5.07;;;5.50;99.90;;;;;;5116105;28;20043;-78
2022/04/20 04:44:01;;;;;;;7.78;4.65;;;5.50;99.90;;;;;;5116240;28;20048;-78
2022/04/20 04:49:10;;;;;;;7.25;4.53;;;5.50;99.90;;;;;;5115690;28;20480;-79
2022/04/20 04:51:36;;;;;;;8.52;4.63;;;5.40;99.90;;;;;;5115909;28;20051;-79
2022/04/20 04:54:01;;;;;;;8.18;4.72;;;5.40;99.90;;;;;;5115783;28;20083;-78
2022/04/20 04:56:27;;;;;;;13.35;5.25;;;5.40;99.90;;;;;;5115386;28;20051;-79
2022/04/20 04:58:53;;;;;;;9.02;4.55;;;5.40;99.90;;;;;;5115489;28;20054;-79
2022/04/20 05:01:18;;;;;;;6.28;4.25;;;5.40;99.90;;;;;;5114594;28;20051;-78
2022/04/20 05:03:44;;;;;;;8.77;4.68;;;5.40;99.90;;;;;;5116223;28;20047;-79
2022/04/20 05:06:09;;;;;;;8.68;4.63;;;5.50;99.90;;;;;;5115566;28;20126;-79
2022/04/20 05:08:35;;;;;;;7.45;5.18;;;5.50;99.90;;;;;;5115542;28;20197;-81
2022/04/20 05:11:01;;;;;;;9.23;4.90;;;5.50;99.90;;;;;;5115268;28;20140;-80
2022/04/20 05:13:26;;;;;;;8.18;4.72;;;5.50;99.90;;;;;;5114649;28;20044;-79
2022/04/20 05:15:52;;;;;;;7.18;4.72;;;5.50;99.90;;;;;;5115095;28;20051;-80
2022/04/20 05:18:17;;;;;;;7.85;4.95;;;5.50;99.90;;;;;;5115344;28;20051;-80
2022/04/20 05:20:44;;;;;;;6.72;4.32;;;5.60;99.90;;;;;;5115651;28;20063;-79
2022/04/20 05:23:09;;;;;;;8.45;4.55;;;5.60;99.90;;;;;;5115582;28;20052;-79
2022/04/20 05:25:35;;;;;;;8.55;4.88;;;5.70;99.90;;;;;;5114112;28;20050;-79
2022/04/20 05:28:01;;;;;;;8.45;4.95;;;5.70;99.90;;;;;;5115279;28;20039;-79
2022/04/20 05:30:27;;;;;;;8.85;5.50;;;5.70;99.90;;;;;;5115105;28;20050;-79
2022/04/20 05:32:52;;;;;;;9.20;5.03;;;5.80;99.90;;;;;;5115633;28;20130;-78
2022/04/20 05:35:18;;;;;;;8.05;4.60;;;5.80;99.90;;;;;;5115829;28;20044;-79
2022/04/20 05:43:12;;;;;;;9.48;5.15;;;5.90;99.90;;;;;;5114862;28;20053;-78
2022/04/20 05:45:37;;;;;;;9.60;5.43;;;6.00;99.90;;;;;;5113979;28;20126;-79
2022/04/20 05:48:04;;;;;;;9.20;4.65;;;6.00;99.90;;;;;;5131021;27;20562;-79
2022/04/20 05:50:29;;;;;;;7.70;4.90;;;6.00;99.90;;;;;;5114767;28;20040;-78
2022/04/20 05:52:55;;;;;;;9.05;5.50;;;6.10;99.90;;;;;;5114772;28;20460;-79
2022/04/20 05:55:20;;;;;;;8.90;4.80;;;6.20;99.90;;;;;;5114681;28;20047;-78
2022/04/20 05:57:47;;;;;;;8.63;4.97;;;6.20;99.90;;;;;;5114794;28;20091;-79
2022/04/20 06:00:14;;;;;;;11.98;5.18;;;6.30;99.90;;;;;;5113925;28;20065;-78
2022/04/20 06:02:40;;;;;;;8.70;4.85;;;6.40;99.90;;;;;;5114523;28;20036;-78
2022/04/20 06:05:06;;;;;;;8.43;4.85;;;6.40;99.90;;;;;;5114508;28;20050;-79
2022/04/20 06:07:33;;;;;;;7.82;4.85;;;6.50;99.90;;;;;;5114678;28;20085;-79
2022/04/20 06:09:58;;;;;;;;;;;6.60;99.90;;;;;;5113856;28;20057;-80
2022/04/20 06:12:24;;;;;;;11.38;5.80;;;6.70;99.90;;;;;;5114273;28;20002;-77
2022/04/20 06:14:50;;;;;;;23.13;5.05;;;6.80;99.90;;;;;;5114292;28;20399;-80
2022/04/20 06:17:15;;;;;;;12.95;5.28;;;6.90;99.90;;;;;;5114600;28;20427;-80
2022/04/20 06:19:41;;;;;;;10.00;5.30;;;7.00;99.90;;;;;;5114241;28;20040;-79
2022/04/20 06:22:07;;;;;;;12.10;4.97;;;7.10;99.90;;;;;;5113320;28;20391;-79
2022/04/20 06:24:32;;;;;;;11.52;4.70;;;7.20;99.90;;;;;;5114454;28;20050;-80
2022/04/20 06:26:58;;;;;;;9.20;4.97;;;7.40;99.90;;;;;;5113846;28;20052;-78
2022/04/20 06:29:23;;;;;;;8.70;4.38;;;7.50;99.90;;;;;;5114175;28;20055;-79
2022/04/20 06:31:51;;;;;;;9.40;5.13;;;7.70;99.90;;;;;;5114536;28;20480;-78
2022/04/20 06:34:19;;;;;;;8.38;4.88;;;7.90;99.90;;;;;;5114161;28;20101;-79
2022/04/20 06:36:45;;;;;;;6.97;4.30;;;8.10;99.90;;;;;;5114068;28;20047;-79
2022/04/20 06:39:10;;;;;;;9.50;4.65;;;8.20;99.90;;;;;;5114311;28;20044;-79
2022/04/20 06:41:36;;;;;;;8.57;4.75;;;8.40;99.90;;;;;;5114056;28;20048;-79
2022/04/20 06:44:02;;;;;;;7.20;4.10;;;8.60;99.90;;;;;;5114047;28;20044;-78
2022/04/20 06:46:28;;;;;;;6.18;3.65;;;8.70;99.90;;;;;;5114045;28;20036;-78
2022/04/20 06:48:53;;;;;;;8.23;3.60;;;8.80;99.90;;;;;;5114333;28;20062;-79
2022/04/20 06:51:19;;;;;;;6.05;4.15;;;8.90;99.90;;;;;;5113591;28;20040;-80
2022/04/20 06:59:13;;;;;;;7.43;4.00;;;9.20;99.90;;;;;;5118048;28;20055;-80
2022/04/20 07:01:39;;;;;;;6.95;3.92;;;9.40;99.90;;;;;;5117785;28;20126;-79
2022/04/20 07:04:05;;;;;;;5.38;4.05;;;9.50;99.90;;;;;;5118169;28;20044;-78
2022/04/20 07:06:31;;;;;;;6.25;3.22;;;9.60;99.90;;;;;;5099543;28;20074;-79
2022/04/20 07:08:57;;;;;;;7.03;3.85;;;9.70;99.90;;;;;;5117671;27;20172;-79
2022/04/20 07:11:23;;;;;;;6.22;3.88;;;9.90;99.90;;;;;;5134367;27;20134;-78
2022/04/20 07:13:50;;;;;;;7.47;3.80;;;9.90;99.90;;;;;;5117740;28;20054;-79
2022/04/20 07:16:15;;;;;;;7.65;4.38;;;10.00;99.90;;;;;;5117719;28;20083;-79
2022/04/20 07:18:41;;;;;;;6.90;3.58;;;10.10;99.90;;;;;;5117568;28;20101;-81
2022/04/20 07:21:07;;;;;;;5.95;3.65;;;10.20;99.90;;;;;;5116135;28;20039;-80
2022/04/20 07:23:32;;;;;;;6.60;3.65;;;10.30;99.90;;;;;;5117588;28;20047;-79
2022/04/20 07:25:58;;;;;;;5.53;4.10;;;10.30;99.90;;;;;;5117826;28;20035;-80
2022/04/20 07:28:23;;;;;;;7.18;3.55;;;10.40;99.90;;;;;;5116163;28;20039;-79
2022/04/20 07:30:49;;;;;;;8.63;3.97;;;10.50;99.90;;;;;;5117437;28;20096;-80
2022/04/20 07:33:16;;;;;;;8.50;3.92;;;10.60;99.90;;;;;;5117398;28;20048;-80
2022/04/20 07:35:45;;;;;;;6.60;3.15;;;10.60;99.90;;;;;;5117471;28;20054;-80
2022/04/20 07:38:11;;;;;;;8.32;3.30;;;10.90;99.90;;;;;;5117224;28;20083;-79
2022/04/20 07:40:36;;;;;;;4.93;2.90;;;10.90;99.90;;;;;;5117641;28;20070;-79
2022/04/20 07:43:02;;;;;;;6.97;3.42;;;11.00;99.90;;;;;;5117001;28;20043;-80
2022/04/20 07:45:28;;;;;;;5.93;3.17;;;11.10;99.90;;;;;;5117262;28;20083;-79
2022/04/20 07:47:55;;;;;;;5.80;3.45;;;11.20;99.90;;;;;;5116133;28;20149;-80
2022/04/20 07:50:24;;;;;;;;;;;11.30;99.90;;;;;;5117513;28;20050;-78
2022/04/20 07:52:59;;;;;;;4.30;2.60;;;11.40;99.90;;;;;;5116899;28;20347;-79
2022/04/20 07:55:31;;;;;;;4.70;2.65;;;11.30;99.80;;;;;;5116733;28;20489;-78
2022/04/20 07:58:00;;;;;;;4.18;2.63;;;11.50;99.20;;;;;;5116879;28;20055;-79
2022/04/20 08:00:26;;;;;;;5.22;3.42;;;11.50;99.90;;;;;;5116846;28;20592;-79
2022/04/20 08:03:08;;;;;;;4.07;3.00;;;11.60;99.10;;;;;;5115952;28;20051;-79
2022/04/20 08:05:34;;;;;;;5.60;3.00;;;11.70;98.60;;;;;;5117528;28;20088;-80
2022/04/20 08:07:59;;;;;;;4.70;2.58;;;11.80;98.40;;;;;;5115894;28;20119;-80
2022/04/20 08:10:25;;;;;;;4.13;2.72;;;11.90;97.90;;;;;;5117113;28;20043;-80
2022/04/20 08:12:51;;;;;;;5.88;3.15;;;12.00;96.90;;;;;;5117253;28;20055;-80
2022/04/20 08:15:16;;;;;;;4.55;2.92;;;12.00;97.20;;;;;;5117211;28;20081;-81
2022/04/20 08:17:42;;;;;;;4.45;2.70;;;12.10;97.30;;;;;;5116323;28;20047;-80
2022/04/20 08:20:08;;;;;;;4.43;2.60;;;12.20;97.40;;;;;;5117064;28;20432;-79
2022/04/20 08:22:42;;;;;;;4.28;2.80;;;12.30;96.90;;;;;;5116425;28;20047;-81
2022/04/20 08:25:12;;;;;;;3.95;2.65;;;12.30;96.00;;;;;;5116774;28;20079;-79
2022/04/20 08:27:38;;;;;;;4.85;3.00;;;12.50;97.10;;;;;;5116591;27;20050;-80
2022/04/20 08:30:05;;;;;;;4.13;2.70;;;12.60;96.80;;;;;;5116402;28;20044;-81
2022/04/20 08:32:31;;;;;;;6.35;3.25;;;12.70;96.30;;;;;;5116183;28;20053;-79
2022/04/20 08:34:57;;;;;;;4.38;2.75;;;12.80;96.50;;;;;;5116570;28;20079;-80
2022/04/20 08:37:23;;;;;;;4.80;2.85;;;12.80;94.50;;;;;;5116036;28;20082;-79
2022/04/20 08:39:48;;;;;;;4.82;2.88;;;12.70;94.40;;;;;;5116176;28;20035;-79
2022/04/20 08:42:19;;;;;;;4.95;2.67;;;12.70;94.80;;;;;;5116124;27;20112;-78
2022/04/20 08:44:49;;;;;;;4.60;3.10;;;12.70;95.00;;;;;;5115020;28;20089;-80
2022/04/20 08:47:21;;;;;;;6.68;2.95;;;12.90;94.80;;;;;;5115631;28;20088;-78
2022/04/20 08:49:51;;;;;;;5.22;3.10;;;13.00;94.00;;;;;;5116000;28;20052;-79
2022/04/20 08:55:03;;;;;;;4.85;2.70;;;13.20;93.70;;;;;;5114844;28;20102;-79
2022/04/20 08:57:29;;;;;;;4.53;2.47;;;13.30;93.70;;;;;;5115671;28;20054;-79
2022/04/20 08:59:57;;;;;;;4.18;2.22;;;13.40;92.70;;;;;;5115632;28;20391;-80
2022/04/20 09:02:24;;;;;;;5.00;2.45;;;13.50;92.00;;;;;;5115534;28;20068;-80
2022/04/20 09:04:50;;;;;;;4.53;2.70;;;13.60;91.80;;;;;;5114496;28;20047;-80
2022/04/20 09:07:18;;;;;;;5.47;1.90;;;13.60;91.80;;;;;;5115560;28;20059;-78
2022/04/20 09:09:43;;;;;;;3.45;2.25;;;13.70;90.50;;;;;;5115587;27;20079;-80
2022/04/20 09:12:14;;;;;;;4.13;1.98;;;13.70;90.10;;;;;;5115596;28;20435;-78
2022/04/20 09:14:41;;;;;;;3.35;1.92;;;13.70;88.70;;;;;;5115883;28;20399;-78
2022/04/20 09:17:09;;;;;;;;;;;13.80;90.00;;;;;;5115851;28;20043;-79
2022/04/20 09:19:36;;;;;;;7.80;1.98;;;13.80;86.10;;;;;;5114307;28;19945;-78
2022/04/20 09:22:23;;;;;;;4.30;1.77;;;13.80;87.80;;;;;;5115366;28;20055;-79
2022/04/20 09:25:07;;;;;;;3.08;1.90;;;14.00;87.00;;;;;;5115294;28;20411;-79
2022/04/20 09:27:39;;;;;;;3.92;2.22;;;14.20;87.20;;;;;;5115213;28;20062;-80
2022/04/20 09:30:10;;;;;;;3.70;1.90;;;14.40;86.70;;;;;;5115141;28;20051;-79
2022/04/20 09:32:44;;;;;;;5.90;2.25;;;14.50;83.80;;;;;;5131468;27;20391;-81
2022/04/20 09:35:14;;;;;;;3.83;1.90;;;14.40;82.70;;;;;;5115178;28;20382;-80
2022/04/20 09:37:41;;;;;;;2.95;2.00;;;14.40;82.30;;;;;;5114940;28;20478;-80
2022/04/20 09:40:11;;;;;;;;;;;14.60;82.90;;;;;;5115662;28;20118;-80
2022/04/20 09:42:39;;;;;;;3.08;2.00;;;14.60;83.90;;;;;;5114937;28;19923;-79
2022/04/20 09:45:07;;;;;;;4.97;2.30;;;14.80;82.80;;;;;;5114068;28;20047;-80
2022/04/20 09:50:23;;;;;;;2.72;1.75;;;15.00;81.70;;;;;;5115329;28;20051;-81
2022/04/20 09:52:54;;;;;;;5.70;2.03;;;15.00;81.70;;;;;;5114720;28;20044;-79
2022/04/20 09:55:34;;;;;;;3.72;1.85;;;15.10;80.70;;;;;;5114926;28;20047;-79
2022/04/20 09:58:12;;;;;;;3.47;2.05;;;15.20;79.70;;;;;;5114685;28;20040;-79
2022/04/20 10:00:40;;;;;;;3.65;2.00;;;15.10;78.60;;;;;;5114647;28;20131;-78
2022/04/20 10:03:06;;;;;;;3.70;1.67;;;15.10;79.10;;;;;;5114738;28;20039;-78
2022/04/20 10:05:32;;;;;;;3.60;2.00;;;15.30;80.60;;;;;;5114493;27;20127;-80
2022/04/20 10:07:59;;;;;;;3.60;2.08;;;15.40;82.10;;;;;;5114507;28;20458;-78
2022/04/20 10:10:27;;;;;;;4.47;2.08;;;15.50;80.30;;;;;;5114629;28;20043;-79
2022/04/20 10:12:54;;;;;;;3.90;1.90;;;15.30;77.10;;;;;;5114032;28;20063;-79
2022/04/20 10:18:09;;;;;;;3.45;1.80;;;16.50;79.00;;;;;;5114342;28;20083;-82
2022/04/20 10:20:35;;;;;;;4.25;1.80;;;15.40;79.10;;;;;;5114402;28;20122;-81
2022/04/20 10:23:05;;;;;;;3.93;2.20;;;15.60;80.10;;;;;;5114440;28;20132;-79
2022/04/20 10:25:30;;;;;;;3.65;2.10;;;15.60;79.50;;;;;;5113329;28;20092;-81
2022/04/20 10:28:08;;;;;;;4.70;1.97;;;15.80;80.30;;;;;;5114333;28;20043;-80
2022/04/20 10:30:52;;;;;;;5.85;2.05;;;16.00;79.90;;;;;;5112964;28;20039;-80
2022/04/20 10:33:23;;;;;;;4.03;1.98;;;16.00;76.90;;;;;;5114360;28;20043;-80
2022/04/20 10:35:59;;;;;;;4.05;1.70;;;15.80;77.10;;;;;;5114179;28;20040;-80
2022/04/20 10:38:28;;;;;;;5.30;1.90;;;15.90;78.00;;;;;;5114028;28;20078;-80
2022/04/20 10:41:02;;;;;;;4.40;2.13;;;15.90;78.10;;;;;;5114162;28;20047;-81
2022/04/20 10:43:29;;;;;;;6.15;2.00;;;16.00;77.10;;;;;;5097746;28;20479;-80
2022/04/20 10:46:04;;;;;;;;;;;16.00;75.70;;;;;;5114716;28;20457;-81
2022/04/20 10:48:49;;;;;;;4.20;2.20;;;16.00;77.20;;;;;;5113982;28;19923;-80
2022/04/20 10:51:35;;;;;;;3.25;1.80;;;16.10;78.20;;;;;;5113947;28;20502;-80
2022/04/20 10:54:19;;;;;;;5.05;1.60;;;16.20;77.20;;;;;;5114096;28;20054;-80
2022/04/20 10:56:48;;;;;;;4.13;2.00;;;16.40;76.80;;;;;;5112751;28;20051;-81
2022/04/20 10:59:14;;;;;;;5.28;1.98;;;16.40;77.70;;;;;;5113850;28;20047;-80
2022/04/20 11:02:07;;;;;;;3.30;1.93;;;16.60;77.70;;;;;;5112820;28;20432;-79
2022/04/20 11:04:46;;;;;;;3.17;1.60;;;16.70;74.20;;;;;;5113974;28;20047;-80
2022/04/20 11:07:26;;;;;;;5.35;1.98;;;16.70;74.30;;;;;;5113943;28;20403;-81
2022/04/20 11:10:06;;;;;;;2.80;1.98;;;16.60;75.10;;;;;;5113857;28;20048;-80
2022/04/20 11:21:03;;;;;;;6.15;1.83;;;16.80;73.80;;;;;;5112826;28;20051;-80
2022/04/20 11:24:06;;;;;;;4.07;1.60;;;16.90;73.50;;;;;;5113542;28;20479;-79
2022/04/20 11:26:54;;;;;;;2.78;1.50;;;17.00;75.10;;;;;;5113360;28;20490;-80
2022/04/20 11:29:25;;;;;;;5.78;1.83;;;17.20;74.90;;;;;;5113814;28;20040;-79
2022/04/20 11:32:20;;;;;;;5.05;1.90;;;17.20;73.00;;;;;;5112961;28;20134;-81
2022/04/20 11:34:45;;;;;;;5.82;2.05;;;17.30;71.50;;;;;;5110192;28;20394;-80
2022/04/20 11:37:11;;;;;;;3.23;1.63;;;17.50;74.70;;;;;;5113755;28;20043;-80
2022/04/20 11:39:36;;;;;;;3.93;1.50;;;17.60;73.80;;;;;;5129780;28;20050;-79
2022/04/20 11:42:04;;;;;;;3.07;1.80;;;17.60;70.20;;;;;;5113510;28;20552;-80
2022/04/20 11:44:41;;;;;;;3.75;1.80;;;17.70;72.50;;;;;;5116536;28;20044;-80
2022/04/20 11:47:08;;;;;;;4.95;1.63;;;17.70;73.60;;;;;;5117201;28;20039;-80
2022/04/20 11:49:41;;;;;;;4.40;1.98;;;17.70;70.70;;;;;;5099079;28;20040;-79
2022/04/20 11:52:11;;;;;;;3.85;1.75;;;17.60;69.90;;;;;;5116126;28;20079;-79
2022/04/20 11:54:38;;;;;;;5.03;1.92;;;17.40;70.30;;;;;;5116778;28;20047;-79
2022/04/20 11:57:04;;;;;;;;;;;17.50;71.10;;;;;;5117202;28;20036;-79
2022/04/20 11:59:29;;;;;;;3.63;1.80;;;17.40;69.40;;;;;;5116848;27;20289;-80
2022/04/20 12:01:56;;;;;;;3.07;1.80;;;17.40;71.90;;;;;;5116820;28;20047;-80
2022/04/20 12:04:25;;;;;;;4.85;2.47;;;17.50;71.10;;;;;;5115768;28;20052;-79
2022/04/20 12:06:59;;;;;;;3.03;1.75;;;17.60;71.80;;;;;;5116555;28;20460;-80
2022/04/20 12:09:30;;;;;;;4.78;1.92;;;17.60;72.00;;;;;;5116761;27;20040;-81
2022/04/20 12:12:00;;;;;;;3.13;2.10;;;17.70;71.40;;;;;;5116631;27;20062;-81
2022/04/20 12:14:34;;;;;;;3.42;1.98;;;17.70;72.10;;;;;;5116968;28;20122;-80
2022/04/20 12:17:05;;;;;;;4.55;1.92;;;17.60;69.70;;;;;;5115713;28;20054;-80
2022/04/20 12:19:32;;;;;;;3.00;2.10;;;17.70;71.10;;;;;;5116420;28;20047;-79
2022/04/20 12:22:07;;;;;;;3.72;2.33;;;17.80;72.20;;;;;;5115779;28;20051;-80
2022/04/20 12:24:34;;;;;;;4.88;2.30;;;18.00;72.40;;;;;;5115295;28;20048;-81
2022/04/20 12:26:59;;;;;;;3.28;2.17;;;17.90;71.10;;;;;;5115421;28;20048;-81
2022/04/20 12:29:32;;;;;;;3.53;2.37;;;18.00;71.20;;;;;;5116726;28;20039;-80
2022/04/20 12:31:58;;;;;;;8.23;2.72;;;18.10;71.30;;;;;;5116284;28;20047;-81
2022/04/20 12:34:26;;;;;;;5.13;2.72;;;18.00;72.20;;;;;;5116177;28;20403;-80
2022/04/20 12:37:15;;;;;;;5.18;2.70;;;18.10;73.40;;;;;;5116053;28;20048;-80
2022/04/20 12:39:44;;;;;;;4.22;2.67;;;18.10;72.80;;;;;;5116040;28;20074;-80
2022/04/20 12:42:19;;;;;;;3.50;2.17;;;18.20;73.40;;;;;;5116068;28;20050;-79
2022/04/20 12:44:52;;;;;;;7.30;2.67;;;18.30;72.00;;;;;;5132020;27;20475;-80
2022/04/20 12:47:18;;;;;;;6.72;2.97;;;18.30;72.30;;;;;;5081348;28;20088;-79
2022/04/20 12:49:51;;;;;;;4.28;2.80;;;18.40;73.20;;;;;;5115494;28;20491;-81
2022/04/20 12:52:28;;;;;;;5.40;2.75;;;18.40;73.70;;;;;;5115794;28;20047;-80
2022/04/20 12:55:03;;;;;;;5.30;2.75;;;18.50;74.20;;;;;;5115622;28;20364;-81
2022/04/20 13:03:12;;;;;;;8.10;3.10;;;18.50;74.40;;;;;;5116158;28;20047;-80
2022/04/20 13:05:40;;;;;;;5.53;3.13;;;18.60;75.70;;;;;;5131768;27;20059;-80
2022/04/20 13:08:07;;;;;;;5.65;2.78;;;18.50;75.00;;;;;;5114768;28;20177;-79
2022/04/20 13:10:37;;;;;;;4.75;3.25;;;18.70;75.70;;;;;;5115256;28;20466;-81
2022/04/20 13:13:03;;;;;;;5.53;2.95;;;18.60;73.90;;;;;;5116531;27;20051;-80
2022/04/20 13:15:31;;;;;;;7.27;3.13;;;18.60;73.40;;;;;;5115590;27;20054;-80
2022/04/20 13:17:57;;;;;;;7.60;2.85;;;18.60;74.10;;;;;;5115292;28;20040;-79
2022/04/20 13:20:25;;;;;;;5.60;3.07;;;18.50;73.20;;;;;;5114374;28;20490;-81
2022/04/20 13:22:51;;;;;;;5.60;3.03;;;18.50;76.60;;;;;;5115318;28;20368;-79
2022/04/20 13:28:01;;;;;;;6.55;3.10;;;18.50;75.10;;;;;;5115479;28;20277;-81
2022/04/20 13:30:29;;;;;;;4.20;2.93;;;18.70;76.00;;;;;;5115180;28;20043;-79
2022/04/20 13:32:56;;;;;;;5.68;2.92;;;18.80;76.30;;;;;;5115050;28;20050;-81
2022/04/20 13:35:24;;;;;;;5.13;3.28;;;18.90;74.80;;;;;;5115173;28;20132;-79